createdAt,value
2022-11-02T00:01:28.609Z,18.50
2022-11-02T00:03:57.106Z,18.48
2022-11-02T00:06:25.680Z,18.34
2022-11-02T00:08:55.457Z,18.18
2022-11-02T00:11:23.683Z,17.66
2022-11-02T00:13:52.052Z,18.13
2022-11-02T00:16:22.405Z,17.64
2022-11-02T00:18:55.857Z,17.96
2022-11-02T00:21:26.980Z,18.09
2022-11-02T00:23:57.588Z,18.19
2022-11-02T00:26:26.820Z,18.01
2022-11-02T00:28:55.333Z,17.59
2022-11-02T00:31:23.635Z,18.10
2022-11-02T00:33:52.880Z,18.22
2022-11-02T00:36:21.246Z,18.19
2022-11-02T00:38:49.528Z,18.28
2022-11-02T00:41:20.386Z,18.21
2022-11-02T00:43:48.635Z,18.43
2022-11-02T00:46:16.943Z,18.66
2022-11-02T00:48:52.893Z,18.46
2022-11-02T00:51:21.262Z,18.69
2022-11-02T00:53:49.480Z,18.38
2022-11-02T00:56:19.164Z,18.39
2022-11-02T00:58:47.420Z,18.52
2022-11-02T01:01:15.791Z,17.87
2022-11-02T01:03:44.154Z,18.03
2022-11-02T01:06:15.513Z,17.48
2022-11-02T01:08:44.016Z,18.13
2022-11-02T01:11:19.535Z,18.03
2022-11-02T01:13:48.542Z,17.67
2022-11-02T01:16:17.055Z,17.83
2022-11-02T01:18:45.365Z,18.37
2022-11-02T01:21:13.850Z,18.53
2022-11-02T01:23:42.124Z,17.88
2022-11-02T01:26:11.901Z,18.06
2022-11-02T01:28:41.932Z,18.73
2022-11-02T01:31:11.412Z,18.25
2022-11-02T01:33:44.538Z,18.36
2022-11-02T01:36:14.455Z,18.86
2022-11-02T01:38:42.742Z,19.16
2022-11-02T01:41:13.056Z,18.94
2022-11-02T01:43:45.588Z,18.76
2022-11-02T01:46:21.094Z,18.80
2022-11-02T01:48:54.400Z,18.35
2022-11-02T01:51:28.252Z,18.03
2022-11-02T01:54:03.369Z,18.20
2022-11-02T01:56:34.101Z,18.73
2022-11-02T01:59:08.319Z,18.71
2022-11-02T02:01:36.709Z,18.41
2022-11-02T02:04:06.047Z,18.64
2022-11-02T02:06:34.808Z,18.86
2022-11-02T02:09:06.334Z,18.99
2022-11-02T02:11:36.731Z,18.87
2022-11-02T02:14:11.939Z,18.97
2022-11-02T02:17:02.390Z,19.49
2022-11-02T02:19:42.624Z,19.68
2022-11-02T02:23:02.444Z,19.91
2022-11-02T02:26:19.292Z,20.21
2022-11-02T02:28:54.560Z,19.60
2022-11-02T02:31:34.304Z,19.85
2022-11-02T02:34:10.809Z,19.59
2022-11-02T02:36:49.499Z,20.01
2022-11-02T02:39:25.498Z,19.76
2022-11-02T02:42:01.807Z,18.66
2022-11-02T02:44:37.720Z,19.13
2022-11-02T02:47:12.677Z,18.95
2022-11-02T02:49:52.493Z,19.46
2022-11-02T02:52:23.543Z,19.66
2022-11-02T02:54:53.819Z,19.06
2022-11-02T02:57:24.637Z,18.58
2022-11-02T02:59:55.085Z,19.09
2022-11-02T03:02:28.240Z,19.22
2022-11-02T03:04:56.649Z,19.00
2022-11-02T03:07:32.764Z,18.79
2022-11-02T03:10:11.662Z,19.41
2022-11-02T03:12:47.529Z,19.53
2022-11-02T03:15:23.279Z,19.13
2022-11-02T03:18:03.651Z,18.92
2022-11-02T03:20:43.099Z,18.79
2022-11-02T03:23:20.151Z,19.15
2022-11-02T03:25:58.603Z,19.45
2022-11-02T03:28:46.174Z,19.21
2022-11-02T03:31:24.993Z,19.42
2022-11-02T03:34:01.798Z,19.52
2022-11-02T03:36:35.576Z,19.62
2022-11-02T03:39:09.599Z,19.54
2022-11-02T03:41:40.838Z,20.16
2022-11-02T03:44:12.818Z,19.99
2022-11-02T03:46:44.929Z,20.17
2022-11-02T03:49:19.472Z,20.24
2022-11-02T03:51:48.845Z,19.39
2022-11-02T03:54:24.822Z,19.27
2022-11-02T03:56:57.695Z,19.37
2022-11-02T03:59:26.229Z,19.51
2022-11-02T04:01:56.171Z,19.35
2022-11-02T04:04:24.515Z,19.22
2022-11-02T04:06:54.180Z,18.87
2022-11-02T04:09:22.490Z,19.34
2022-11-02T04:12:08.179Z,19.73
2022-11-02T04:14:39.101Z,20.20
2022-11-02T04:17:28.492Z,20.34
2022-11-02T04:19:57.518Z,19.70
2022-11-02T04:22:42.985Z,19.73
2022-11-02T04:25:22.412Z,20.42
2022-11-02T04:27:53.095Z,20.31
2022-11-02T04:30:23.301Z,20.12
2022-11-02T04:33:10.564Z,20.05
2022-11-02T04:35:39.030Z,19.89
2022-11-02T04:38:24.758Z,19.60
2022-11-02T04:41:13.819Z,19.22
2022-11-02T04:43:42.253Z,18.75
2022-11-02T04:46:10.513Z,19.42
2022-11-02T04:48:40.231Z,19.48
2022-11-02T04:51:08.837Z,19.98
2022-11-02T04:53:37.117Z,20.04
2022-11-02T04:56:06.057Z,19.97
2022-11-02T04:58:34.351Z,19.03
2022-11-02T05:01:07.432Z,19.07
2022-11-02T05:03:35.900Z,19.23
2022-11-02T05:06:06.272Z,19.78
2022-11-02T05:08:34.690Z,19.99
2022-11-02T05:11:02.970Z,19.97
2022-11-02T05:13:31.591Z,19.78
2022-11-02T05:16:00.862Z,19.94
2022-11-02T05:18:30.133Z,19.50
2022-11-02T05:21:00.619Z,18.96
2022-11-02T05:23:30.941Z,18.96
2022-11-02T05:26:01.115Z,19.33
2022-11-02T05:28:30.562Z,19.61
2022-11-02T05:31:01.509Z,19.40
2022-11-02T05:33:31.091Z,19.43
2022-11-02T05:36:00.376Z,19.63
2022-11-02T05:38:30.964Z,19.81
2022-11-02T05:41:01.056Z,20.17
2022-11-02T05:43:29.779Z,20.23
2022-11-02T05:45:59.925Z,19.78
2022-11-02T05:48:31.650Z,19.72
2022-11-02T05:51:01.925Z,19.63
2022-11-02T05:53:33.902Z,19.50
2022-11-02T05:56:03.525Z,20.33
2022-11-02T05:58:32.111Z,20.12
2022-11-02T06:01:01.345Z,18.82
2022-11-02T06:03:29.993Z,19.18
2022-11-02T06:05:58.600Z,19.61
2022-11-02T06:08:27.116Z,18.86
2022-11-02T06:10:56.814Z,19.67
2022-11-02T06:13:25.113Z,19.65
2022-11-02T06:15:53.339Z,19.79
2022-11-02T06:18:21.676Z,19.83
2022-11-02T06:20:49.940Z,20.01
2022-11-02T06:23:18.399Z,20.06
2022-11-02T06:25:53.019Z,19.38
2022-11-02T06:28:24.469Z,19.87
2022-11-02T06:30:53.239Z,20.13
2022-11-02T06:33:22.366Z,20.22
2022-11-02T06:35:52.775Z,20.10
2022-11-02T06:38:21.661Z,20.32
2022-11-02T06:40:57.606Z,20.16
2022-11-02T06:43:27.599Z,20.14
2022-11-02T06:45:56.712Z,19.97
2022-11-02T06:48:28.692Z,20.33
2022-11-02T06:51:01.883Z,20.66
2022-11-02T06:53:30.396Z,20.55
2022-11-02T06:56:00.950Z,21.05
2022-11-02T06:58:30.957Z,20.66
2022-11-02T07:01:01.086Z,20.84
2022-11-02T07:03:30.639Z,21.00
2022-11-02T07:05:58.982Z,20.62
2022-11-02T07:08:28.672Z,20.70
2022-11-02T07:10:57.709Z,20.72
2022-11-02T07:13:26.397Z,20.87
2022-11-02T07:15:56.949Z,20.85
2022-11-02T07:18:25.791Z,20.64
2022-11-02T07:20:54.032Z,20.68
2022-11-02T07:23:24.215Z,21.44
2022-11-02T07:25:52.990Z,21.31
2022-11-02T07:28:21.954Z,20.94
2022-11-02T07:30:50.626Z,20.47
2022-11-02T07:33:20.228Z,21.34
2022-11-02T07:35:48.593Z,21.55
2022-11-02T07:38:16.878Z,21.34
2022-11-02T07:40:45.180Z,21.04
2022-11-02T07:43:13.516Z,22.08
2022-11-02T07:45:41.846Z,21.76
2022-11-02T07:48:10.184Z,22.06
2022-11-02T07:50:39.841Z,22.11
2022-11-02T07:53:08.278Z,21.92
2022-11-02T07:55:36.737Z,21.32
2022-11-02T07:58:07.956Z,21.91
2022-11-02T08:00:39.548Z,21.91
2022-11-02T08:03:10.011Z,22.05
2022-11-02T08:05:42.538Z,22.22
2022-11-02T08:08:14.794Z,22.33
2022-11-02T08:10:44.481Z,22.41
2022-11-02T08:13:15.123Z,22.07
2022-11-02T08:15:43.456Z,21.17
2022-11-02T08:18:16.378Z,21.44
2022-11-02T08:20:47.486Z,21.08
2022-11-02T08:23:17.633Z,21.25
2022-11-02T08:25:48.318Z,21.20
2022-11-02T08:28:19.170Z,21.02
2022-11-02T08:30:47.492Z,21.94
2022-11-02T08:33:18.469Z,21.41
2022-11-02T08:35:49.834Z,21.13
2022-11-02T08:38:18.728Z,20.97
2022-11-02T08:40:46.983Z,21.06
2022-11-02T08:43:16.396Z,20.89
2022-11-02T08:48:34.814Z,20.29
2022-11-02T08:51:05.728Z,21.65
2022-11-02T08:53:34.150Z,21.92
2022-11-02T08:56:07.054Z,20.88
2022-11-02T08:58:35.553Z,21.16
2022-11-02T09:01:04.010Z,21.44
2022-11-02T09:03:32.271Z,21.49
2022-11-02T09:06:04.826Z,21.47
2022-11-02T09:08:33.214Z,21.50
2022-11-02T09:11:04.758Z,21.79
2022-11-02T09:13:33.215Z,21.50
2022-11-02T09:16:02.725Z,21.98
2022-11-02T09:18:31.800Z,21.21
2022-11-02T09:21:05.104Z,21.63
2022-11-02T09:23:34.111Z,21.64
2022-11-02T09:26:02.384Z,21.09
2022-11-02T09:28:31.109Z,21.02
2022-11-02T09:30:59.348Z,21.89
2022-11-02T09:33:29.703Z,21.81
2022-11-02T09:35:57.973Z,21.87
2022-11-02T09:38:27.652Z,21.10
2022-11-02T09:41:08.954Z,21.37
2022-11-02T09:43:51.060Z,21.02
2022-11-02T09:46:23.877Z,21.21
2022-11-02T09:48:57.201Z,21.51
2022-11-02T09:51:30.538Z,21.72
2022-11-02T09:54:13.126Z,21.16
2022-11-02T09:56:44.168Z,21.58
2022-11-02T09:59:17.070Z,22.10
2022-11-02T10:02:01.294Z,21.81
2022-11-02T10:05:02.014Z,21.15
2022-11-02T10:07:47.057Z,21.92
2022-11-02T10:10:27.194Z,22.75
2022-11-02T10:13:05.239Z,22.88
2022-11-02T10:15:39.521Z,21.55
2022-11-02T10:18:14.749Z,22.57
2022-11-02T10:20:47.313Z,22.39
2022-11-02T10:23:24.165Z,22.24
2022-11-02T10:25:54.064Z,22.34
2022-11-02T10:28:30.752Z,23.08
2022-11-02T10:30:59.396Z,22.97
2022-11-02T10:33:30.491Z,21.83
2022-11-02T10:36:19.748Z,22.70
2022-11-02T10:39:04.603Z,22.41
2022-11-02T10:41:52.344Z,23.32
2022-11-02T10:44:47.900Z,22.93
2022-11-02T10:47:19.479Z,23.62
2022-11-02T10:50:18.733Z,23.89
2022-11-02T10:52:47.872Z,23.02
2022-11-02T10:55:26.984Z,23.40
2022-11-02T10:57:59.991Z,23.06
2022-11-02T11:00:33.811Z,23.17
2022-11-02T11:03:11.649Z,23.30
2022-11-02T11:05:57.825Z,22.95
2022-11-02T11:08:35.443Z,23.11
2022-11-02T11:11:19.095Z,23.24
2022-11-02T11:16:49.230Z,22.18
2022-11-02T11:22:03.768Z,22.78
2022-11-02T11:24:33.872Z,23.27
2022-11-02T11:27:17.996Z,23.29
2022-11-02T11:29:55.520Z,22.55
2022-11-02T11:32:30.485Z,23.04
2022-11-02T11:35:02.868Z,22.88
2022-11-02T11:37:31.459Z,23.07
2022-11-02T11:40:03.388Z,23.12
2022-11-02T11:42:36.827Z,23.25
2022-11-02T11:45:15.643Z,23.86
2022-11-02T11:47:44.365Z,23.53
2022-11-02T11:50:23.476Z,23.15
2022-11-02T11:53:17.188Z,23.37
2022-11-02T11:55:49.753Z,22.88
2022-11-02T11:58:23.499Z,22.61
2022-11-02T12:01:10.587Z,22.78
2022-11-02T12:03:55.851Z,22.20
2022-11-02T12:06:33.630Z,23.45
2022-11-02T12:09:08.617Z,23.30
2022-11-02T12:11:50.822Z,23.06
2022-11-02T12:14:37.583Z,22.67
2022-11-02T12:17:44.156Z,22.85
2022-11-02T12:20:45.314Z,23.96
2022-11-02T12:23:33.808Z,23.28
2022-11-02T12:26:19.175Z,22.99
2022-11-02T12:29:02.677Z,23.68
2022-11-02T12:31:36.890Z,23.68
2022-11-02T12:34:36.354Z,22.94
2022-11-02T12:40:22.970Z,24.41
2022-11-02T12:43:01.707Z,23.74
2022-11-02T12:45:43.070Z,24.05
2022-11-02T12:48:17.113Z,23.26
2022-11-02T12:51:01.865Z,23.77
2022-11-02T12:53:45.217Z,23.32
2022-11-02T12:56:20.817Z,23.59
2022-11-02T12:58:50.369Z,23.69
2022-11-02T13:01:26.082Z,24.29
2022-11-02T13:04:01.875Z,24.12
2022-11-02T13:06:36.859Z,24.10
2022-11-02T13:09:12.733Z,23.58
2022-11-02T13:11:46.189Z,23.31
2022-11-02T13:14:17.905Z,24.00
2022-11-02T13:16:54.146Z,23.99
2022-11-02T13:19:32.854Z,24.01
2022-11-02T13:22:05.497Z,24.17
2022-11-02T13:24:39.833Z,24.83
2022-11-02T13:27:35.891Z,25.60
2022-11-02T13:30:11.345Z,24.49
2022-11-02T13:32:44.343Z,25.58
2022-11-02T13:35:19.872Z,25.35
2022-11-02T13:37:55.861Z,25.05
2022-11-02T13:40:28.835Z,25.19
2022-11-02T13:43:44.144Z,24.68
2022-11-02T13:46:37.320Z,24.69
2022-11-02T13:49:14.377Z,25.72
2022-11-02T13:51:48.201Z,25.61
2022-11-02T13:54:22.827Z,25.44
2022-11-02T13:56:56.363Z,24.51
2022-11-02T13:59:30.331Z,24.83
2022-11-02T14:02:01.540Z,25.22
2022-11-02T14:04:38.920Z,24.03
2022-11-02T14:07:11.234Z,23.92
2022-11-02T14:09:44.604Z,24.52
2022-11-02T14:12:39.536Z,23.48
2022-11-02T14:15:47.273Z,23.92
2022-11-02T14:18:31.477Z,23.96
2022-11-02T14:21:38.928Z,24.02
2022-11-02T14:24:57.570Z,23.89
2022-11-02T14:27:31.010Z,24.03
2022-11-02T14:29:59.811Z,23.34
2022-11-02T14:32:42.923Z,22.69
2022-11-02T14:35:41.981Z,23.31
2022-11-02T14:38:58.029Z,24.47
2022-11-02T14:42:07.555Z,23.57
2022-11-02T14:45:33.619Z,24.01
2022-11-02T14:48:05.396Z,24.92
2022-11-02T14:50:34.387Z,24.80
2022-11-02T14:53:09.042Z,24.33
2022-11-02T14:55:39.573Z,24.27
2022-11-02T14:58:18.640Z,24.54
2022-11-02T15:00:58.536Z,24.15
2022-11-02T15:03:38.823Z,24.24
2022-11-02T15:06:17.464Z,24.57
2022-11-02T15:08:55.729Z,24.65
2022-11-02T15:11:49.099Z,25.07
2022-11-02T15:14:56.405Z,23.66
2022-11-02T15:17:54.956Z,24.38
2022-11-02T15:20:33.075Z,24.23
2022-11-02T15:23:29.876Z,23.74
2022-11-02T15:26:00.331Z,23.42
2022-11-02T15:28:30.860Z,23.48
2022-11-02T15:31:05.918Z,23.31
2022-11-02T15:33:40.485Z,23.60
2022-11-02T15:36:15.716Z,23.66
2022-11-02T15:38:49.601Z,23.61
2022-11-02T15:41:27.561Z,23.42
2022-11-02T15:44:14.984Z,23.30
2022-11-02T15:47:00.413Z,22.92
2022-11-02T15:49:51.380Z,21.72
2022-11-02T15:52:31.639Z,21.58
2022-11-02T15:55:10.284Z,22.00
2022-11-02T15:57:47.320Z,21.95
2022-11-02T16:00:19.981Z,21.51
2022-11-02T16:02:51.993Z,21.26
2022-11-02T16:05:28.806Z,21.11
2022-11-02T16:08:10.811Z,20.28
2022-11-02T16:10:39.537Z,19.76
2022-11-02T16:13:17.920Z,19.95
2022-11-02T16:15:48.738Z,19.81
2022-11-02T16:18:30.015Z,19.89
2022-11-02T16:21:02.452Z,18.70
2022-11-02T16:23:33.649Z,19.24
2022-11-02T16:26:04.953Z,19.26
2022-11-02T16:28:35.484Z,19.31
2022-11-02T16:31:17.225Z,19.57
2022-11-02T16:33:51.739Z,19.52
2022-11-02T16:36:22.338Z,19.29
2022-11-02T16:38:59.193Z,19.04
2022-11-02T16:41:29.513Z,18.96
2022-11-02T16:44:00.236Z,18.87
2022-11-02T16:46:41.173Z,18.65
2022-11-02T16:49:19.569Z,18.74
2022-11-02T16:51:56.034Z,18.36
2022-11-02T16:54:40.527Z,18.28
2022-11-02T16:57:17.499Z,18.19
2022-11-02T16:59:53.030Z,17.94
2022-11-02T17:02:33.128Z,17.63
2022-11-02T17:05:06.205Z,17.58
2022-11-02T17:07:40.161Z,17.82
2022-11-02T17:10:10.522Z,18.05
2022-11-02T17:12:43.096Z,17.62
2022-11-02T17:15:18.527Z,18.14
2022-11-02T17:17:47.011Z,18.10
2022-11-02T17:20:26.452Z,18.35
2022-11-02T17:22:58.769Z,18.58
2022-11-02T17:25:29.317Z,18.55
2022-11-02T17:27:59.540Z,18.19
2022-11-02T17:30:58.119Z,17.56
2022-11-02T17:33:30.096Z,17.82
2022-11-02T17:36:07.472Z,18.02
2022-11-02T17:38:36.108Z,17.99
2022-11-02T17:41:24.774Z,17.81
2022-11-02T17:43:52.303Z,17.86
2022-11-02T17:46:20.610Z,17.81
2022-11-02T17:48:49.025Z,17.37
2022-11-02T17:51:22.087Z,17.03
2022-11-02T17:53:51.283Z,17.27
2022-11-02T17:56:19.624Z,17.50
2022-11-02T17:58:47.853Z,17.54
2022-11-02T18:01:16.543Z,17.36
2022-11-02T18:03:44.875Z,17.37
2022-11-02T18:06:13.987Z,17.38
2022-11-02T18:09:02.577Z,17.11
2022-11-02T18:11:31.955Z,16.92
2022-11-02T18:14:00.449Z,16.38
2022-11-02T18:16:29.066Z,16.52
2022-11-02T18:18:57.458Z,16.65
2022-11-02T18:21:25.892Z,16.62
2022-11-02T18:23:55.771Z,16.65
2022-11-02T18:26:24.190Z,16.51
2022-11-02T18:28:52.532Z,16.94
2022-11-02T18:31:21.063Z,16.34
2022-11-02T18:33:52.522Z,16.89
2022-11-02T18:36:21.214Z,16.89
2022-11-02T18:38:49.636Z,16.75
2022-11-02T18:41:31.968Z,16.89
2022-11-02T18:44:05.791Z,16.64
2022-11-02T18:46:37.561Z,16.62
2022-11-02T18:49:05.945Z,17.00
2022-11-02T18:51:34.483Z,16.66
2022-11-02T18:54:05.565Z,16.86
2022-11-02T18:56:35.306Z,16.76
2022-11-02T18:59:03.819Z,16.95
2022-11-02T19:01:32.235Z,17.22
2022-11-02T19:04:02.126Z,16.85
2022-11-02T19:06:50.524Z,16.38
2022-11-02T19:09:21.494Z,16.72
2022-11-02T19:11:54.617Z,16.67
2022-11-02T19:14:25.046Z,16.74
2022-11-02T19:16:53.316Z,16.53
2022-11-02T19:19:22.162Z,16.63
2022-11-02T19:21:50.462Z,16.76
2022-11-02T19:24:20.998Z,16.82
2022-11-02T19:26:50.940Z,16.38
2022-11-02T19:29:19.295Z,16.32
2022-11-02T19:31:48.260Z,16.53
2022-11-02T19:34:16.826Z,16.13
2022-11-02T19:36:45.232Z,16.06
2022-11-02T19:39:13.550Z,16.39
2022-11-02T19:41:41.953Z,16.55
2022-11-02T19:44:11.794Z,16.61
2022-11-02T19:46:40.214Z,16.12
2022-11-02T19:49:08.634Z,15.94
2022-11-02T19:51:36.917Z,15.89
2022-11-02T19:54:05.918Z,15.36
2022-11-02T19:56:36.426Z,15.76
2022-11-02T19:59:06.597Z,16.17
2022-11-02T20:01:39.125Z,15.68
2022-11-02T20:04:08.048Z,15.89
2022-11-02T20:06:38.713Z,16.07
2022-11-02T20:09:15.513Z,15.62
2022-11-02T20:11:45.148Z,15.70
2022-11-02T20:14:14.899Z,15.50
2022-11-02T20:16:47.358Z,15.73
2022-11-02T20:19:22.182Z,15.43
2022-11-02T20:21:50.664Z,15.16
2022-11-02T20:24:18.916Z,15.35
2022-11-02T20:26:47.209Z,15.82
2022-11-02T20:29:17.337Z,15.40
2022-11-02T20:31:48.081Z,15.35
2022-11-02T20:34:16.499Z,15.38
2022-11-02T20:36:44.764Z,15.42
2022-11-02T20:39:13.394Z,15.24
2022-11-02T20:41:41.686Z,15.09
2022-11-02T20:44:09.985Z,15.02
2022-11-02T20:46:41.474Z,14.86
2022-11-02T20:49:21.612Z,15.17
2022-11-02T20:51:58.046Z,14.91
2022-11-02T20:54:29.521Z,15.16
2022-11-02T20:56:57.975Z,14.90
2022-11-02T20:59:26.695Z,15.23
2022-11-02T21:01:55.292Z,15.60
2022-11-02T21:04:25.116Z,15.37
2022-11-02T21:06:53.450Z,15.48
2022-11-02T21:09:21.779Z,14.98
2022-11-02T21:12:07.638Z,15.29
2022-11-02T21:14:35.924Z,15.49
2022-11-02T21:17:06.745Z,15.20
2022-11-02T21:19:36.457Z,14.96
2022-11-02T21:22:04.717Z,15.44
2022-11-02T21:24:32.959Z,15.17
2022-11-02T21:27:01.314Z,15.33
2022-11-02T21:29:29.646Z,15.17
2022-11-02T21:31:58.301Z,15.18
2022-11-02T21:34:26.616Z,14.93
2022-11-02T21:36:56.303Z,14.96
2022-11-02T21:39:24.704Z,15.02
2022-11-02T21:41:53.053Z,14.95
2022-11-02T21:44:21.349Z,15.17
2022-11-02T21:46:51.724Z,15.36
2022-11-02T21:49:20.042Z,14.94
2022-11-02T21:51:48.348Z,14.91
2022-11-02T21:54:18.048Z,14.91
2022-11-02T21:56:48.262Z,14.74
2022-11-02T21:59:16.497Z,15.05
2022-11-02T22:01:48.207Z,14.82
2022-11-02T22:04:25.353Z,15.05
2022-11-02T22:06:54.788Z,14.68
2022-11-02T22:09:25.920Z,14.54
2022-11-02T22:12:16.134Z,15.03
2022-11-02T22:14:44.963Z,15.06
2022-11-02T22:17:43.193Z,15.12
2022-11-02T22:20:04.168Z,15.29
2022-11-02T22:22:32.581Z,15.31
2022-11-02T22:25:02.426Z,15.31
2022-11-02T22:27:30.759Z,15.23
2022-11-02T22:29:59.007Z,15.09
2022-11-02T22:32:27.290Z,14.74
2022-11-02T22:34:55.569Z,14.72
2022-11-02T22:37:41.306Z,14.90
2022-11-02T22:40:24.527Z,14.23
2022-11-02T22:42:55.894Z,14.53
2022-11-02T22:45:24.178Z,14.04
2022-11-02T22:47:52.458Z,13.84
2022-11-02T22:50:23.732Z,14.44
2022-11-02T22:52:56.347Z,14.81
2022-11-02T22:55:25.965Z,14.59
2022-11-02T22:57:59.741Z,14.61
2022-11-02T23:00:28.445Z,15.07
2022-11-02T23:02:56.711Z,15.57
2022-11-02T23:05:24.968Z,15.58
2022-11-02T23:07:53.252Z,15.46
2022-11-02T23:10:35.379Z,15.60
2022-11-02T23:13:05.351Z,15.29
2022-11-02T23:15:33.795Z,14.88
2022-11-02T23:18:02.031Z,14.76
2022-11-02T23:20:29.316Z,15.16
2022-11-02T23:23:17.851Z,15.17
2022-11-02T23:25:46.154Z,15.24
2022-11-02T23:28:33.491Z,14.86
2022-11-02T23:31:19.555Z,15.10
2022-11-02T23:33:47.834Z,15.29
2022-11-02T23:36:16.013Z,15.11
2022-11-02T23:39:03.821Z,14.95
2022-11-02T23:41:34.030Z,15.11
2022-11-02T23:44:12.734Z,14.88
2022-11-02T23:46:42.700Z,14.93
2022-11-02T23:49:11.328Z,15.00
2022-11-02T23:51:59.827Z,14.97
2022-11-02T23:54:45.527Z,14.90
2022-11-02T23:57:14.115Z,14.94
2022-11-02T23:59:43.761Z,15.06
